createdAt,value
2018-03-14T00:00:58.421Z,17.10
2018-03-14T00:01:58.438Z,17.30
2018-03-14T00:02:58.455Z,17.30
2018-03-14T00:03:58.474Z,17.90
2018-03-14T00:04:58.487Z,17.70
2018-03-14T00:05:58.504Z,18.10
2018-03-14T00:06:58.520Z,17.50
2018-03-14T00:07:58.538Z,18.00
2018-03-14T00:08:58.554Z,18.90
2018-03-14T00:09:58.567Z,18.50
2018-03-14T00:10:58.587Z,18.80
2018-03-14T00:11:58.605Z,18.80
2018-03-14T00:12:58.614Z,19.00
2018-03-14T00:13:58.633Z,19.20
2018-03-14T00:14:58.650Z,18.20
2018-03-14T00:15:58.665Z,19.90
2018-03-14T00:16:58.684Z,19.50
2018-03-14T00:17:58.700Z,19.30
2018-03-14T00:18:58.717Z,19.00
2018-03-14T00:19:58.736Z,19.30
2018-03-14T00:20:58.746Z,20.00
2018-03-14T00:21:58.765Z,19.70
2018-03-14T00:22:58.781Z,19.40
2018-03-14T00:23:58.797Z,20.50
2018-03-14T00:24:58.816Z,19.80
2018-03-14T00:25:58.829Z,20.60
2018-03-14T00:26:58.846Z,20.40
2018-03-14T00:27:58.861Z,20.10
2018-03-14T00:28:58.876Z,21.10
2018-03-14T00:29:58.897Z,20.70
2018-03-14T00:30:58.911Z,20.80
2018-03-14T00:31:58.929Z,21.80
2018-03-14T00:32:58.943Z,20.10
2018-03-14T00:33:58.957Z,21.00
2018-03-14T00:34:58.977Z,20.90
2018-03-14T00:35:58.993Z,21.70
2018-03-14T00:36:59.008Z,21.40
2018-03-14T00:37:59.027Z,20.90
2018-03-14T00:38:59.043Z,20.70
2018-03-14T00:39:59.060Z,20.60
2018-03-14T00:40:59.075Z,21.10
2018-03-14T00:41:59.094Z,20.50
2018-03-14T00:42:59.106Z,20.20
2018-03-14T00:43:59.122Z,20.90
2018-03-14T00:44:59.138Z,21.00
2018-03-14T00:45:59.160Z,21.10
2018-03-14T00:46:59.173Z,20.70
2018-03-14T00:47:59.189Z,20.60
2018-03-14T00:48:59.206Z,19.90
2018-03-14T00:49:59.222Z,21.90
2018-03-14T00:50:59.236Z,21.20
2018-03-14T00:51:59.255Z,20.60
2018-03-14T00:52:59.271Z,19.80
2018-03-14T00:53:59.287Z,20.30
2018-03-14T00:54:59.303Z,20.30
2018-03-14T00:55:59.319Z,20.30
2018-03-14T00:56:59.337Z,21.50
2018-03-14T00:57:59.352Z,20.20
2018-03-14T00:58:59.368Z,21.00
2018-03-14T00:59:59.387Z,20.90
2018-03-14T01:00:59.408Z,21.40
2018-03-14T01:01:59.418Z,20.70
2018-03-14T01:02:59.440Z,20.60
2018-03-14T01:03:59.453Z,20.70
2018-03-14T01:04:59.472Z,20.40
2018-03-14T01:05:59.485Z,20.70
2018-03-14T01:06:59.502Z,20.30
2018-03-14T01:07:59.517Z,21.20
2018-03-14T01:08:59.533Z,20.50
2018-03-14T01:09:59.546Z,21.10
2018-03-14T01:10:59.566Z,21.40
2018-03-14T01:11:59.584Z,20.70
2018-03-14T01:12:59.599Z,20.40
2018-03-14T01:13:59.614Z,21.10
2018-03-14T01:14:59.631Z,21.10
2018-03-14T01:15:59.646Z,20.70
2018-03-14T01:16:59.664Z,20.60
2018-03-14T01:17:59.681Z,21.20
2018-03-14T01:18:59.697Z,19.80
2018-03-14T01:19:59.710Z,21.50
2018-03-14T01:20:59.730Z,20.70
2018-03-14T01:21:59.745Z,20.20
2018-03-14T01:22:59.763Z,20.40
2018-03-14T01:23:59.777Z,20.80
2018-03-14T01:24:59.793Z,20.70
2018-03-14T01:25:59.807Z,21.00
2018-03-14T01:26:59.828Z,21.80
2018-03-14T01:27:59.843Z,21.80
2018-03-14T01:28:59.858Z,20.40
2018-03-14T01:29:59.876Z,20.90
2018-03-14T01:30:59.896Z,21.50
2018-03-14T01:31:59.908Z,21.10
2018-03-14T01:32:59.927Z,21.30
2018-03-14T01:33:59.946Z,21.10
2018-03-14T01:34:59.962Z,21.50
2018-03-14T01:35:59.974Z,21.60
2018-03-14T01:36:59.992Z,21.20
2018-03-14T01:38:00.009Z,21.60
2018-03-14T01:39:00.027Z,21.40
2018-03-14T01:40:00.044Z,21.10
2018-03-14T01:41:00.058Z,22.10
2018-03-14T01:42:00.076Z,21.50
2018-03-14T01:43:00.092Z,21.30
2018-03-14T01:44:00.106Z,22.00
2018-03-14T01:45:00.121Z,22.00
2018-03-14T01:46:00.139Z,22.10
2018-03-14T01:47:00.156Z,21.80
2018-03-14T01:48:00.174Z,21.80
2018-03-14T01:49:00.190Z,22.20
2018-03-14T01:50:00.204Z,21.80
2018-03-14T01:51:00.225Z,22.60
2018-03-14T01:52:00.240Z,22.60
2018-03-14T01:53:00.257Z,22.30
2018-03-14T01:54:00.272Z,23.20
2018-03-14T01:55:00.289Z,22.70
2018-03-14T01:56:00.306Z,23.00
2018-03-14T01:57:00.321Z,23.00
2018-03-14T01:58:00.336Z,22.50
2018-03-14T01:59:00.354Z,22.00
2018-03-14T02:00:00.372Z,22.10
2018-03-14T02:01:00.390Z,22.20
2018-03-14T02:02:00.407Z,22.90
2018-03-14T02:03:00.418Z,23.60
2018-03-14T02:04:00.440Z,21.50
2018-03-14T02:05:00.454Z,23.30
2018-03-14T02:06:00.473Z,23.60
2018-03-14T02:07:00.488Z,22.60
2018-03-14T02:08:00.503Z,22.30
2018-03-14T02:09:00.519Z,22.70
2018-03-14T02:10:00.536Z,22.60
2018-03-14T02:11:00.553Z,21.90
2018-03-14T02:12:00.571Z,22.20
2018-03-14T02:13:00.586Z,23.20
2018-03-14T02:14:00.602Z,22.60
2018-03-14T02:15:00.625Z,22.90
2018-03-14T02:16:00.638Z,23.80
2018-03-14T02:17:00.649Z,23.90
2018-03-14T02:18:00.671Z,23.00
2018-03-14T02:19:00.683Z,23.80
2018-03-14T02:20:00.704Z,23.20
2018-03-14T02:21:00.719Z,23.60
2018-03-14T02:22:00.735Z,23.00
2018-03-14T02:23:00.751Z,23.50
2018-03-14T02:24:00.769Z,22.90
2018-03-14T02:25:00.785Z,22.80
2018-03-14T02:26:00.802Z,24.10
2018-03-14T02:27:00.816Z,23.40
2018-03-14T02:28:00.834Z,22.30
2018-03-14T02:29:00.850Z,23.90
2018-03-14T02:30:00.869Z,23.90
2018-03-14T02:31:00.885Z,24.20
2018-03-14T02:32:00.899Z,23.90
2018-03-14T02:33:00.917Z,24.80
2018-03-14T02:34:00.935Z,23.30
2018-03-14T02:35:00.952Z,24.60
2018-03-14T02:36:00.966Z,24.20
2018-03-14T02:37:00.982Z,23.80
2018-03-14T02:38:01.003Z,23.00
2018-03-14T02:39:01.017Z,23.80
2018-03-14T02:40:01.032Z,23.70
2018-03-14T02:41:01.048Z,22.90
2018-03-14T02:42:01.067Z,23.90
2018-03-14T02:43:01.084Z,22.00
2018-03-14T02:44:01.102Z,24.30
2018-03-14T02:45:01.117Z,23.90
2018-03-14T02:46:01.133Z,24.20
2018-03-14T02:47:01.153Z,23.80
2018-03-14T02:48:01.168Z,23.80
2018-03-14T02:49:01.186Z,25.00
2018-03-14T02:50:01.197Z,24.00
2018-03-14T02:51:01.218Z,23.80
2018-03-14T02:52:01.233Z,23.10
2018-03-14T02:53:01.246Z,24.40
2018-03-14T02:54:01.266Z,24.70
2018-03-14T02:55:01.282Z,23.40
2018-03-14T02:56:01.298Z,23.90
2018-03-14T02:57:01.315Z,24.70
2018-03-14T02:58:01.329Z,24.30
2018-03-14T02:59:01.353Z,24.20
2018-03-14T03:00:01.363Z,23.80
2018-03-14T03:01:01.383Z,24.00
2018-03-14T03:02:01.400Z,24.60
2018-03-14T03:03:01.413Z,23.90
2018-03-14T03:04:01.435Z,24.20
2018-03-14T03:05:01.494Z,24.30
2018-03-14T03:06:01.466Z,24.70
2018-03-14T03:07:01.484Z,25.30
2018-03-14T05:06:41.132Z,27.90
2018-03-14T05:07:41.109Z,41.00
2018-03-14T05:09:41.530Z,52.30
2018-03-14T05:10:41.511Z,53.60
2018-03-14T05:12:41.920Z,52.70
2018-03-14T05:13:41.924Z,50.50
2018-03-14T05:15:36.350Z,51.00
2018-03-14T05:16:36.340Z,48.00
2018-03-14T05:18:29.250Z,51.00
2018-03-14T05:19:29.257Z,48.60
2018-03-14T05:21:22.191Z,50.10
2018-03-14T05:22:22.182Z,49.50
2018-03-14T05:24:15.117Z,49.30
2018-03-14T05:25:15.107Z,49.30
2018-03-14T05:27:13.055Z,46.60
2018-03-14T05:28:13.027Z,46.90
2018-03-14T05:30:06.454Z,43.90
2018-03-14T05:31:06.446Z,44.30
2018-03-14T05:32:59.367Z,45.00
2018-03-14T05:33:59.375Z,46.20
2018-03-14T05:34:59.393Z,47.20
2018-03-14T05:35:59.401Z,48.30
2018-03-14T05:36:59.414Z,49.90
2018-03-14T05:37:59.429Z,49.60
2018-03-14T05:38:59.451Z,48.10
2018-03-14T05:39:59.458Z,48.90
2018-03-14T05:40:59.480Z,48.20
2018-03-14T05:41:59.493Z,47.30
2018-03-14T05:42:59.507Z,46.20
2018-03-14T05:43:59.519Z,44.10
2018-03-14T05:44:59.538Z,43.10
2018-03-14T05:45:59.553Z,42.50
2018-03-14T05:46:59.561Z,41.70
2018-03-14T05:47:59.579Z,40.40
2018-03-14T05:48:59.594Z,40.00
2018-03-14T05:49:59.608Z,40.80
2018-03-14T05:50:59.667Z,40.70
2018-03-14T05:51:59.643Z,42.10
2018-03-14T05:52:59.658Z,41.90
2018-03-14T05:53:59.672Z,40.70
2018-03-14T05:54:59.688Z,41.80
2018-03-14T05:55:59.705Z,41.00
2018-03-14T05:56:59.717Z,39.70
2018-03-14T05:57:59.737Z,40.20
2018-03-14T05:58:59.750Z,40.10
2018-03-14T05:59:59.762Z,40.70
2018-03-14T06:00:59.780Z,39.80
2018-03-14T06:01:59.795Z,39.10
2018-03-14T06:02:59.807Z,38.60
2018-03-14T06:03:59.823Z,40.00
2018-03-14T06:04:59.839Z,40.10
2018-03-14T06:05:59.857Z,40.20
2018-03-14T06:06:59.870Z,40.80
2018-03-14T06:08:00.007Z,39.00
2018-03-14T06:08:59.901Z,39.60
2018-03-14T06:09:59.916Z,39.20
2018-03-14T06:10:59.983Z,39.50
2018-03-14T06:11:59.954Z,39.20
2018-03-14T06:12:59.966Z,40.00
2018-03-14T06:14:00.037Z,39.20
2018-03-14T06:14:59.994Z,40.60
2018-03-14T06:16:00.015Z,40.00
2018-03-14T06:17:00.034Z,39.10
2018-03-14T06:18:00.042Z,38.70
2018-03-14T06:19:00.058Z,37.90
2018-03-14T06:20:00.077Z,38.60
2018-03-14T06:21:00.091Z,39.80
2018-03-14T06:22:00.113Z,38.80
2018-03-14T06:23:00.126Z,38.40
2018-03-14T06:24:00.140Z,38.10
2018-03-14T06:25:00.154Z,37.60
2018-03-14T06:26:00.171Z,36.10
2018-03-14T06:27:00.185Z,36.10
2018-03-14T06:28:00.205Z,38.10
2018-03-14T06:29:00.223Z,39.20
2018-03-14T06:30:00.237Z,35.70
2018-03-14T06:31:00.252Z,36.10
2018-03-14T06:32:00.265Z,35.70
2018-03-14T06:33:00.285Z,37.80
2018-03-14T06:34:00.298Z,36.50
2018-03-14T06:35:00.313Z,34.80
2018-03-14T06:36:00.332Z,35.30
2018-03-14T06:37:00.345Z,35.60
2018-03-14T06:38:00.361Z,34.90
2018-03-14T06:39:00.377Z,36.50
2018-03-14T06:40:00.395Z,36.60
2018-03-14T06:41:00.418Z,37.30
2018-03-14T06:42:00.429Z,37.80
2018-03-14T06:43:00.445Z,36.80
2018-03-14T06:44:00.459Z,37.20
2018-03-14T06:45:00.476Z,38.00
2018-03-14T06:46:00.492Z,38.30
2018-03-14T06:47:00.507Z,38.00
2018-03-14T06:48:00.523Z,37.20
2018-03-14T06:49:00.565Z,36.40
2018-03-14T06:50:00.555Z,37.70
2018-03-14T06:51:00.628Z,36.90
2018-03-14T06:52:00.594Z,37.20
2018-03-14T06:53:00.608Z,36.30
2018-03-14T06:54:00.627Z,36.10
2018-03-14T06:55:00.638Z,37.20
2018-03-14T06:56:00.656Z,38.50
2018-03-14T06:57:00.675Z,36.60
2018-03-14T06:58:00.690Z,36.20
2018-03-14T06:59:00.757Z,35.20
2018-03-14T07:00:00.726Z,35.00
2018-03-14T07:01:00.734Z,35.60
2018-03-14T07:02:00.799Z,34.70
2018-03-14T07:03:00.774Z,36.50
2018-03-14T07:04:00.783Z,36.20
2018-03-14T07:05:00.812Z,37.90
2018-03-14T07:06:02.019Z,37.40
2018-03-14T07:07:01.947Z,38.50
2018-03-14T07:08:02.342Z,38.70
2018-03-14T07:09:01.674Z,37.90
2018-03-14T07:10:01.171Z,38.20
2018-03-14T07:11:01.321Z,38.60
2018-03-14T07:12:01.144Z,39.00
2018-03-14T07:13:00.942Z,38.30
2018-03-14T07:14:02.077Z,37.80
2018-03-14T07:15:03.755Z,37.90
2018-03-14T07:16:01.210Z,38.20
2018-03-14T07:17:01.253Z,37.80
2018-03-14T07:18:01.042Z,36.60
2018-03-14T07:19:01.098Z,38.60
2018-03-14T07:20:01.098Z,38.80
2018-03-14T07:21:01.205Z,38.80
2018-03-14T07:22:01.236Z,37.70
2018-03-14T07:23:01.627Z,37.80
2018-03-14T07:24:01.179Z,37.10
2018-03-14T07:25:01.168Z,37.70
2018-03-14T07:26:01.195Z,37.40
2018-03-14T07:27:01.272Z,38.00
2018-03-14T07:28:01.234Z,37.90
2018-03-14T07:29:01.261Z,37.80
2018-03-14T07:30:01.275Z,38.90
2018-03-14T07:31:01.283Z,38.10
2018-03-14T07:32:01.289Z,38.00
2018-03-14T07:33:01.287Z,38.00
2018-03-14T07:34:01.293Z,37.50
2018-03-14T07:35:01.336Z,37.50
2018-03-14T07:36:01.328Z,36.30
2018-03-14T07:37:01.385Z,36.10
2018-03-14T07:38:01.379Z,37.40
2018-03-14T07:39:01.372Z,36.30
2018-03-14T07:40:01.401Z,34.80
2018-03-14T07:41:01.408Z,35.90
2018-03-14T07:42:01.506Z,35.30
2018-03-14T07:43:01.490Z,35.60
2018-03-14T07:44:01.498Z,34.60
2018-03-14T07:45:01.479Z,34.40
2018-03-14T07:46:01.500Z,33.60
2018-03-14T07:47:01.592Z,34.00
2018-03-14T07:48:01.523Z,35.10
2018-03-14T07:49:01.549Z,33.10
2018-03-14T07:50:01.562Z,33.70
2018-03-14T07:51:01.609Z,33.40
2018-03-14T07:52:01.653Z,33.30
2018-03-14T07:53:01.653Z,32.20
2018-03-14T07:54:01.727Z,32.40
2018-03-14T07:55:01.642Z,32.80
2018-03-14T07:56:01.667Z,32.60
2018-03-14T07:57:01.676Z,32.40
2018-03-14T07:58:01.820Z,33.00
2018-03-14T07:59:01.883Z,34.70
2018-03-14T08:00:01.730Z,36.10
2018-03-14T08:01:01.781Z,35.00
2018-03-14T08:02:01.762Z,37.10
2018-03-14T08:03:01.791Z,35.60
2018-03-14T08:04:01.806Z,37.40
2018-03-14T08:05:01.824Z,37.90
2018-03-14T08:06:01.886Z,38.70
2018-03-14T08:07:01.896Z,38.40
2018-03-14T08:08:01.912Z,39.20
2018-03-14T08:09:01.903Z,39.10
2018-03-14T08:10:01.921Z,40.40
2018-03-14T08:11:01.920Z,40.40
2018-03-14T08:12:01.936Z,40.40
2018-03-14T08:13:01.953Z,39.10
2018-03-14T08:14:01.993Z,38.20
2018-03-14T08:15:01.984Z,40.20
2018-03-14T08:16:02.021Z,39.40
2018-03-14T08:17:02.066Z,39.30
2018-03-14T08:18:02.843Z,37.60
2018-03-14T08:19:02.059Z,36.20
2018-03-14T08:20:02.230Z,36.00
2018-03-14T08:21:02.131Z,37.20
2018-03-14T08:22:02.124Z,36.00
2018-03-14T08:23:02.273Z,35.70
2018-03-14T08:24:02.236Z,35.60
2018-03-14T08:25:02.274Z,35.30
2018-03-14T08:26:02.272Z,37.00
2018-03-14T08:27:02.304Z,36.90
2018-03-14T08:28:02.366Z,37.30
2018-03-14T08:29:02.234Z,35.90
2018-03-14T08:30:02.249Z,35.60
2018-03-14T08:31:02.281Z,35.90
2018-03-14T08:32:02.309Z,37.00
2018-03-14T08:33:02.379Z,37.50
2018-03-14T08:34:02.318Z,37.50
2018-03-14T08:35:02.367Z,36.60
2018-03-14T08:36:02.386Z,37.80
2018-03-14T08:37:02.376Z,35.90
2018-03-14T08:38:02.439Z,36.30
2018-03-14T08:39:02.426Z,36.10
2018-03-14T08:40:02.465Z,35.60
2018-03-14T08:41:02.461Z,34.70
2018-03-14T08:42:02.513Z,38.30
2018-03-14T08:43:02.478Z,36.10
2018-03-14T08:44:02.552Z,39.80
2018-03-14T08:45:02.582Z,40.10
2018-03-14T08:46:02.557Z,42.40
2018-03-14T08:47:02.613Z,44.90
2018-03-14T08:48:02.607Z,43.80
2018-03-14T08:49:03.426Z,43.70
2018-03-14T08:50:02.645Z,44.70
2018-03-14T08:51:02.714Z,42.50
2018-03-14T08:52:02.653Z,43.70
2018-03-14T08:53:02.659Z,41.90
2018-03-14T08:54:02.676Z,40.10
2018-03-14T08:55:02.742Z,37.90
2018-03-14T08:56:02.707Z,35.10
2018-03-14T08:57:02.726Z,35.60
2018-03-14T08:58:02.845Z,35.10
2018-03-14T08:59:02.841Z,34.30
2018-03-14T09:00:02.832Z,33.10
2018-03-14T09:01:02.799Z,33.30
2018-03-14T09:02:02.819Z,32.60
2018-03-14T09:03:02.841Z,33.30
2018-03-14T09:04:02.882Z,33.60
2018-03-14T09:05:02.992Z,33.10
2018-03-14T09:06:02.924Z,31.60
2018-03-14T09:07:02.906Z,31.50
2018-03-14T09:08:02.982Z,31.70
2018-03-14T09:09:02.949Z,32.10
2018-03-14T09:10:02.969Z,30.90
2018-03-14T09:11:02.991Z,32.20
2018-03-14T09:12:03.045Z,33.10
2018-03-14T09:13:03.020Z,32.70
2018-03-14T09:14:03.037Z,33.50
2018-03-14T09:15:03.053Z,33.90
2018-03-14T09:16:03.080Z,33.50
2018-03-14T09:17:03.094Z,34.40
2018-03-14T09:18:03.158Z,34.50
2018-03-14T09:19:03.200Z,35.20
2018-03-14T09:20:03.153Z,35.50
2018-03-14T09:21:03.165Z,34.50
2018-03-14T09:22:03.213Z,33.60
2018-03-14T09:23:03.205Z,33.60
2018-03-14T09:24:03.257Z,32.80
2018-03-14T09:25:03.304Z,33.60
2018-03-14T09:26:03.268Z,33.50
2018-03-14T09:27:04.369Z,32.70
2018-03-14T09:28:03.307Z,32.60
2018-03-14T09:29:03.338Z,31.70
2018-03-14T09:30:03.341Z,32.00
2018-03-14T09:31:03.361Z,29.40
2018-03-14T09:32:03.361Z,28.00
2018-03-14T09:33:03.407Z,28.50
2018-03-14T09:34:03.416Z,29.80
2018-03-14T09:35:03.430Z,29.30
2018-03-14T09:36:03.436Z,30.40
2018-03-14T09:37:03.462Z,29.50
2018-03-14T09:38:03.537Z,28.40
2018-03-14T09:39:03.544Z,29.50
2018-03-14T09:40:03.512Z,28.50
2018-03-14T09:41:03.667Z,28.70
2018-03-14T09:42:03.557Z,30.60
2018-03-14T09:43:03.571Z,29.60
2018-03-14T09:44:03.588Z,30.80
2018-03-14T09:45:03.608Z,28.90
2018-03-14T09:46:03.734Z,30.00
2018-03-14T09:47:03.742Z,29.50
2018-03-14T09:48:03.683Z,31.00
2018-03-14T09:49:05.521Z,30.40
2018-03-14T09:50:03.820Z,31.00
2018-03-14T09:51:03.764Z,31.10
2018-03-14T09:52:03.808Z,31.30
2018-03-14T09:53:03.810Z,31.00
2018-03-14T09:54:03.813Z,32.10
2018-03-14T09:55:03.837Z,32.50
2018-03-14T09:56:03.899Z,31.10
2018-03-14T09:57:05.537Z,30.10
2018-03-14T09:58:04.917Z,27.40
2018-03-14T09:59:03.917Z,22.90
2018-03-14T10:00:04.000Z,23.40
2018-03-14T10:01:03.941Z,22.80
2018-03-14T10:02:04.527Z,22.80
2018-03-14T10:03:05.137Z,22.70
2018-03-14T10:04:04.048Z,19.90
2018-03-14T10:05:04.053Z,19.60
2018-03-14T10:06:04.266Z,20.80
2018-03-14T10:07:04.134Z,19.70
2018-03-14T10:08:04.115Z,19.20
2018-03-14T10:09:04.154Z,18.50
2018-03-14T10:10:04.158Z,20.90
2018-03-14T10:11:05.172Z,21.30
2018-03-14T10:12:04.190Z,21.60
2018-03-14T10:13:04.199Z,23.40
2018-03-14T10:14:05.212Z,24.60
2018-03-14T10:15:04.222Z,23.80
2018-03-14T10:16:04.310Z,23.70
2018-03-14T10:17:04.344Z,22.00
2018-03-14T10:18:04.345Z,22.80
2018-03-14T10:19:04.489Z,21.70
2018-03-14T10:20:04.335Z,21.00
2018-03-14T10:21:04.348Z,21.30
2018-03-14T10:22:04.315Z,20.90
2018-03-14T10:23:04.367Z,20.40
2018-03-14T10:24:04.592Z,19.80
2018-03-14T10:25:04.397Z,19.70
2018-03-14T10:26:04.400Z,19.00
2018-03-14T10:27:04.431Z,19.60
2018-03-14T10:28:04.401Z,19.90
2018-03-14T10:29:04.469Z,20.90
2018-03-14T10:30:04.440Z,21.10
2018-03-14T10:31:04.462Z,21.00
2018-03-14T10:32:04.487Z,21.30
2018-03-14T10:33:04.519Z,21.20
2018-03-14T10:34:04.523Z,18.60
2018-03-14T10:35:04.560Z,21.30
2018-03-14T10:36:04.583Z,18.50
2018-03-14T10:37:04.770Z,19.20
2018-03-14T10:38:04.649Z,18.00
2018-03-14T10:39:04.645Z,15.30
2018-03-14T10:40:04.662Z,13.70
2018-03-14T10:41:04.798Z,12.50
2018-03-14T10:42:04.682Z,7.40
2018-03-14T10:43:04.706Z,8.60
2018-03-14T10:44:04.756Z,9.00
2018-03-14T10:45:04.742Z,10.80
2018-03-14T10:46:04.754Z,10.40
2018-03-14T10:47:04.824Z,12.20
2018-03-14T10:48:04.793Z,12.00
2018-03-14T10:49:04.801Z,11.80
2018-03-14T10:50:04.833Z,14.10
2018-03-14T10:51:04.842Z,15.20
2018-03-14T10:52:04.881Z,14.90
2018-03-14T10:53:04.879Z,15.20
2018-03-14T10:54:04.931Z,18.70
2018-03-14T10:55:04.931Z,19.20
2018-03-14T10:56:04.956Z,19.50
2018-03-14T10:57:04.984Z,17.50
2018-03-14T10:58:04.985Z,14.70
2018-03-14T10:59:05.023Z,15.10
2018-03-14T11:00:05.005Z,15.10
2018-03-14T11:01:05.033Z,15.30
2018-03-14T11:02:05.065Z,15.10
2018-03-14T11:03:05.109Z,14.00
2018-03-14T11:04:05.085Z,11.90
2018-03-14T11:05:05.115Z,12.10
2018-03-14T11:06:05.133Z,12.30
2018-03-14T11:07:05.140Z,11.60
2018-03-14T11:08:05.157Z,11.10
2018-03-14T11:09:05.174Z,13.20
2018-03-14T11:10:05.214Z,12.40
2018-03-14T11:11:05.217Z,13.20
2018-03-14T11:12:05.242Z,12.50
2018-03-14T11:13:07.002Z,12.50
2018-03-14T11:14:06.323Z,9.40
2018-03-14T11:15:05.325Z,6.50
2018-03-14T11:16:05.349Z,5.00
2018-03-14T11:17:05.413Z,4.10
2018-03-14T11:18:05.447Z,2.70
2018-03-14T11:19:05.457Z,4.50
2018-03-14T11:20:05.438Z,4.60
2018-03-14T11:21:05.445Z,3.70
2018-03-14T11:22:05.501Z,1.50
2018-03-14T11:23:05.521Z,3.70
2018-03-14T11:24:05.494Z,5.90
2018-03-14T11:25:05.539Z,9.20
2018-03-14T11:26:05.582Z,9.10
2018-03-14T11:27:05.590Z,10.90
2018-03-14T11:28:05.758Z,11.40
2018-03-14T11:29:05.621Z,11.30
2018-03-14T11:30:05.628Z,11.80
2018-03-14T11:31:05.683Z,11.20
2018-03-14T11:32:05.680Z,10.90
2018-03-14T11:33:05.665Z,9.80
2018-03-14T11:34:05.663Z,10.70
2018-03-14T11:35:05.722Z,10.10
2018-03-14T11:36:05.703Z,11.20
2018-03-14T11:37:05.769Z,10.20
2018-03-14T11:38:05.734Z,9.60
2018-03-14T11:39:05.753Z,10.30
2018-03-14T11:40:05.773Z,10.40
2018-03-14T11:41:05.791Z,10.10
2018-03-14T11:42:05.809Z,10.30
2018-03-14T11:43:05.833Z,10.00
2018-03-14T11:44:05.860Z,10.40
2018-03-14T11:45:05.865Z,9.90
2018-03-14T11:46:05.885Z,8.10
2018-03-14T11:47:05.903Z,8.90
2018-03-14T11:48:05.920Z,8.10
2018-03-14T11:49:05.943Z,8.60
2018-03-14T11:50:05.961Z,8.40
2018-03-14T11:51:05.989Z,8.60
2018-03-14T11:52:06.015Z,9.40
2018-03-14T11:53:06.040Z,9.30
2018-03-14T11:54:06.051Z,8.80
2018-03-14T11:55:06.060Z,9.00
2018-03-14T11:56:06.083Z,8.80
2018-03-14T11:57:06.101Z,9.20
2018-03-14T11:58:06.120Z,9.20
2018-03-14T11:59:06.142Z,9.30
2018-03-14T12:00:06.154Z,10.10
2018-03-14T12:01:06.178Z,9.00
2018-03-14T12:02:06.197Z,8.80
2018-03-14T12:03:06.212Z,8.70
2018-03-14T12:04:06.234Z,8.20
2018-03-14T12:05:06.267Z,8.60
2018-03-14T12:06:06.296Z,9.00
2018-03-14T12:07:06.296Z,7.20
2018-03-14T12:08:06.895Z,6.60
2018-03-14T12:09:06.335Z,7.40
2018-03-14T12:10:06.351Z,8.40
2018-03-14T12:11:06.378Z,7.70
2018-03-14T12:12:06.389Z,7.70
2018-03-14T12:13:06.410Z,8.30
2018-03-14T12:14:06.432Z,8.20
2018-03-14T12:15:06.470Z,8.30
2018-03-14T12:16:06.472Z,8.50
2018-03-14T12:17:06.491Z,8.50
2018-03-14T12:18:06.517Z,8.70
2018-03-14T12:19:06.530Z,8.90
2018-03-14T12:20:06.543Z,9.10
2018-03-14T12:21:06.574Z,9.30
2018-03-14T12:22:06.587Z,9.30
2018-03-14T12:23:06.608Z,10.10
2018-03-14T12:24:06.629Z,10.30
2018-03-14T12:25:06.645Z,10.20
2018-03-14T12:26:06.668Z,10.30
2018-03-14T12:27:06.685Z,10.20
2018-03-14T12:28:06.704Z,10.80
2018-03-14T12:29:06.723Z,10.80
2018-03-14T12:30:06.742Z,11.10
2018-03-14T12:31:06.765Z,10.10
2018-03-14T12:32:06.803Z,9.80
2018-03-14T12:33:06.802Z,10.30
2018-03-14T12:34:06.909Z,10.50
2018-03-14T12:35:06.864Z,10.60
2018-03-14T12:36:06.865Z,10.60
2018-03-14T12:37:06.885Z,10.30
2018-03-14T12:38:06.902Z,10.00
2018-03-14T12:39:06.956Z,10.10
2018-03-14T12:40:06.940Z,10.60
2018-03-14T12:41:06.963Z,10.00
2018-03-14T12:42:06.988Z,10.70
2018-03-14T12:43:07.014Z,11.10
2018-03-14T12:44:07.027Z,10.60
2018-03-14T12:45:07.044Z,11.20
2018-03-14T12:46:07.077Z,11.30
2018-03-14T12:47:07.115Z,11.20
2018-03-14T12:48:07.124Z,11.20
2018-03-14T12:49:07.127Z,10.60
2018-03-14T12:50:07.163Z,10.50
2018-03-14T12:51:07.193Z,10.60
2018-03-14T12:52:07.185Z,9.60
2018-03-14T12:53:07.206Z,10.60
2018-03-14T12:54:07.233Z,10.50
2018-03-14T12:55:07.248Z,10.20
2018-03-14T12:56:07.275Z,10.10
2018-03-14T12:57:07.303Z,10.50
2018-03-14T12:58:07.313Z,11.60
2018-03-14T12:59:07.343Z,11.00
2018-03-14T13:00:07.359Z,10.80
2018-03-14T13:01:07.422Z,10.40
2018-03-14T13:02:07.424Z,10.40
2018-03-14T13:03:07.433Z,10.60
2018-03-14T13:04:07.459Z,10.30
2018-03-14T13:05:07.485Z,9.90
2018-03-14T13:06:07.526Z,10.30
2018-03-14T13:07:07.504Z,9.30
2018-03-14T13:08:07.523Z,9.70
2018-03-14T13:09:07.549Z,9.80
2018-03-14T13:10:07.609Z,10.10
2018-03-14T13:11:07.582Z,9.70
2018-03-14T13:12:07.612Z,10.30
2018-03-14T13:13:07.661Z,9.60
2018-03-14T13:14:07.649Z,9.50
2018-03-14T13:15:07.704Z,9.20
2018-03-14T13:16:07.735Z,9.20
2018-03-14T13:17:07.714Z,9.40
2018-03-14T13:18:07.823Z,9.20
2018-03-14T13:19:07.836Z,9.20
2018-03-14T13:20:07.844Z,9.30
2018-03-14T13:21:07.811Z,8.90
2018-03-14T13:22:07.913Z,9.20
2018-03-14T13:23:07.975Z,9.10
2018-03-14T13:24:07.918Z,8.70
2018-03-14T13:25:08.030Z,8.60
2018-03-14T13:26:07.905Z,8.90
2018-03-14T13:27:08.059Z,8.80
2018-03-14T13:28:08.010Z,9.50
2018-03-14T13:29:07.962Z,9.10
2018-03-14T13:30:08.118Z,9.60
2018-03-14T13:31:07.995Z,8.70
2018-03-14T13:32:08.029Z,9.10
2018-03-14T13:33:08.062Z,9.40
2018-03-14T13:34:08.070Z,8.90
2018-03-14T13:35:08.080Z,9.20
2018-03-14T13:36:08.150Z,8.90
2018-03-14T13:37:08.126Z,8.90
2018-03-14T13:38:08.179Z,9.40
2018-03-14T13:39:08.212Z,9.30
2018-03-14T13:40:08.185Z,8.80
2018-03-14T13:41:08.262Z,8.80
2018-03-14T13:42:08.225Z,9.00
2018-03-14T13:43:08.245Z,9.10
2018-03-14T13:44:08.263Z,9.60
2018-03-14T13:45:08.284Z,8.60
2018-03-14T13:46:08.297Z,8.10
2018-03-14T13:47:08.970Z,9.00
2018-03-14T13:48:08.521Z,8.20
2018-03-14T13:49:08.466Z,8.70
2018-03-14T13:50:08.422Z,8.30
2018-03-14T13:51:08.486Z,8.10
2018-03-14T13:52:08.443Z,8.50
2018-03-14T13:53:08.458Z,9.20
2018-03-14T13:54:08.491Z,8.60
2018-03-14T13:55:08.510Z,8.60
2018-03-14T13:56:08.505Z,8.60
2018-03-14T13:57:08.525Z,9.30
2018-03-14T13:58:08.613Z,9.20
2018-03-14T13:59:08.605Z,9.50
2018-03-14T14:00:08.613Z,8.70
2018-03-14T14:01:08.629Z,8.50
2018-03-14T14:02:08.772Z,8.80
2018-03-14T14:03:08.721Z,9.00
2018-03-14T14:04:08.701Z,9.10
2018-03-14T14:05:08.775Z,8.60
2018-03-14T14:06:08.789Z,9.50
2018-03-14T14:07:08.757Z,8.70
2018-03-14T14:08:08.880Z,9.20
2018-03-14T14:09:08.804Z,8.80
2018-03-14T14:10:08.807Z,9.10
2018-03-14T14:11:08.841Z,8.80
2018-03-14T14:12:08.814Z,9.10
2018-03-14T14:13:09.028Z,9.30
2018-03-14T14:14:08.888Z,9.40
2018-03-14T14:15:08.968Z,8.90
2018-03-14T14:16:08.994Z,8.70
2018-03-14T14:17:09.964Z,8.80
2018-03-14T14:18:08.977Z,9.30
2018-03-14T14:19:09.079Z,8.80
2018-03-14T14:20:09.068Z,8.60
2018-03-14T14:21:09.002Z,8.60
2018-03-14T14:22:09.180Z,8.50
2018-03-14T14:23:09.218Z,8.30
2018-03-14T14:24:09.106Z,8.20
2018-03-14T14:25:09.289Z,8.20
2018-03-14T14:26:09.161Z,8.00
